Madison, MN

1:45 AM CDT on May 29, 2017 (GMT -0500)
Madison-Lac Qui Parle County

Weather History for KDXX - November, 2011

Change the Weather History Date:

Sunday, November 27, 2011

  Actual Average (KAQP) Record (KAQP)
Temperature  
Mean Temperature 26 °F -  
Max Temperature 33 °F 32 °F 55 °F (1998)
Min Temperature 19 °F 16 °F -11 °F (2014)
Degree Days  
Heating Degree Days 39    
Moisture  
Dew Point 22 °F    
Average Humidity 74    
Maximum Humidity 93    
Minimum Humidity 60    
Precipitation  
Precipitation 0.00 in - - ()
Sea Level Pressure  
Sea Level Pressure 30.23 in    
Wind  
Wind Speed 16 mph (NNW)    
Max Wind Speed 26 mph    
Max Gust Speed 32 mph    
Visibility 10 miles    
Events      
Averages and records for this station are not official NWS values.
T = Trace of Precipitation, MM = Missing Value Source: NWS Daily Summary

Daily Weather History Graph

Daily Weather History Graph

Search for Another Location

Airport or City:

Trip Planner

Search our weather history database for the weather conditions in past years. The results will help you decide how hot, cold, wet, or windy it might be!

Date:

Astronomy

Nov. 27, 2011 Rise Set
Actual Time 7:37 AM CST 4:46 PM CST
Civil Twilight 7:04 AM CST 5:19 PM CST
Nautical Twilight 6:28 AM CST 5:55 PM CST
Astronomical Twilight 5:53 AM CST 6:30 PM CST
Moon 10:04 AM CST (11/27) 7:25 PM CST (11/27)
Length of Visible Light 10h 14m
Length of Day
9h 08m
Waxing Crescent, 8% of the Moon is Illuminated
Nov 27
Waxing Crescent
Dec 2
First Quarter
Dec 10
Full
Dec 17
Last Quarter
Dec 24
New

Hourly Weather History & Observations

Time (CST) Temp. Windchill Dew Point Humidity Pressure Visibility Wind Dir Wind Speed Gust Speed Precip Events Conditions
12:13 AM 33.8 °F 21.6 °F 26.6 °F 75% 30.23 in 10.0 mi NNW 23.0 mph 31.1 mph N/A   Overcast
12:34 AM 33.8 °F 21.9 °F 26.6 °F 75% 30.23 in 10.0 mi NNW 21.9 mph 32.2 mph N/A   Overcast
12:54 AM 33.8 °F 20.8 °F 26.6 °F 75% 30.23 in 10.0 mi NNW 26.5 mph 31.1 mph N/A   Overcast
1:13 AM 32.0 °F 19.2 °F 24.8 °F 75% 30.23 in 10.0 mi NNW 23.0 mph 32.2 mph N/A   Overcast
1:34 AM 32.0 °F 19.8 °F 24.8 °F 75% 30.23 in 10.0 mi NNW 20.7 mph 28.8 mph N/A   Overcast
1:54 AM 32.0 °F 19.2 °F 24.8 °F 75% 30.23 in 10.0 mi NNW 23.0 mph 31.1 mph N/A   Overcast
2:13 AM 32.0 °F 20.1 °F 24.8 °F 75% 30.23 in 10.0 mi NNW 19.6 mph 32.2 mph N/A   Overcast
2:34 AM 30.2 °F 16.8 °F 24.8 °F 80% 30.24 in 10.0 mi NNW 23.0 mph 27.6 mph N/A   Overcast
2:53 AM 30.2 °F 18.1 °F 24.8 °F 80% 30.24 in 10.0 mi North 18.4 mph 26.5 mph N/A   Overcast
3:14 AM 30.2 °F 17.1 °F 24.8 °F 80% 30.24 in 10.0 mi NNW 21.9 mph 26.5 mph N/A   Overcast
3:34 AM 30.2 °F 16.2 °F 24.8 °F 80% 30.24 in 10.0 mi NNW 25.3 mph 28.8 mph N/A   Overcast
3:53 AM 30.2 °F 16.8 °F 24.8 °F 80% 30.24 in 10.0 mi NNW 23.0 mph 29.9 mph N/A   Overcast
4:14 AM 30.2 °F 17.8 °F 24.8 °F 80% 30.24 in 10.0 mi NNW 19.6 mph 27.6 mph N/A   Overcast
4:34 AM 30.2 °F 17.1 °F 24.8 °F 80% 30.25 in 10.0 mi North 21.9 mph 26.5 mph N/A   Overcast
4:53 AM 30.2 °F 17.8 °F 24.8 °F 80% 30.25 in 10.0 mi NNW 19.6 mph 28.8 mph N/A   Overcast
5:14 AM 30.2 °F 17.1 °F 24.8 °F 80% 30.25 in 10.0 mi NNW 21.9 mph 28.8 mph N/A   Overcast
5:34 AM 30.2 °F 17.4 °F 24.8 °F 80% 30.25 in 10.0 mi NNW 20.7 mph 27.6 mph N/A   Overcast
6:14 AM 30.2 °F 18.9 °F 23.0 °F 75% 30.25 in 10.0 mi North 16.1 mph 27.6 mph N/A   Overcast
6:34 AM 30.2 °F 18.1 °F 23.0 °F 75% 30.26 in 10.0 mi North 18.4 mph 25.3 mph N/A   Overcast
7:14 AM 28.4 °F 15.8 °F 23.0 °F 80% 30.28 in 10.0 mi NNW 18.4 mph 24.2 mph N/A   Overcast
7:33 AM 28.4 °F 15.4 °F 21.2 °F 74% 30.27 in 10.0 mi NNW 19.6 mph 24.2 mph N/A   Overcast
7:53 AM 28.4 °F 16.6 °F 21.2 °F 74% 30.27 in 10.0 mi NNW 16.1 mph 23.0 mph N/A   Overcast
8:14 AM 28.4 °F 17.0 °F 21.2 °F 74% 30.27 in 10.0 mi NNW 15.0 mph - N/A   Overcast
8:34 AM 28.4 °F 17.0 °F 21.2 °F 74% 30.27 in 10.0 mi NNW 15.0 mph - N/A   Overcast
9:14 AM 28.4 °F 18.0 °F 21.2 °F 74% 30.28 in 10.0 mi NNW 12.7 mph 17.3 mph N/A   Overcast
9:33 AM 28.4 °F 18.0 °F 21.2 °F 74% 30.28 in 10.0 mi NNW 12.7 mph - N/A   Overcast
9:54 AM 28.4 °F 17.0 °F 21.2 °F 74% 30.28 in 10.0 mi NNW 15.0 mph - N/A   Overcast
10:14 AM 28.4 °F 17.5 °F 21.2 °F 74% 30.28 in 10.0 mi NNW 13.8 mph - N/A   Overcast
10:33 AM 28.4 °F 18.0 °F 21.2 °F 74% 30.28 in 10.0 mi North 12.7 mph - N/A   Overcast
10:54 AM 30.2 °F 19.8 °F 21.2 °F 69% 30.27 in 10.0 mi North 13.8 mph 19.6 mph N/A   Overcast
11:14 AM 30.2 °F 21.3 °F 21.2 °F 69% 30.27 in 10.0 mi North 10.4 mph 17.3 mph N/A   Overcast
11:54 AM 30.2 °F 20.8 °F 21.2 °F 69% 30.26 in 10.0 mi NNW 11.5 mph - N/A   Overcast
12:14 PM 30.2 °F 21.3 °F 21.2 °F 69% 30.25 in 10.0 mi NNW 10.4 mph - N/A   Scattered Clouds
12:33 PM 30.2 °F 21.9 °F 21.2 °F 69% 30.24 in 10.0 mi North 9.2 mph - N/A   Scattered Clouds
12:54 PM 33.8 °F 26.4 °F 23.0 °F 65% 30.23 in 10.0 mi North 9.2 mph - N/A   Scattered Clouds
1:13 PM 32.0 °F 25.6 °F 21.2 °F 64% 30.23 in 10.0 mi NNW 6.9 mph - N/A   Scattered Clouds
1:34 PM 33.8 °F 27.0 °F 21.2 °F 60% 30.23 in 10.0 mi NNW 8.1 mph - N/A   Scattered Clouds
1:53 PM 33.8 °F 27.0 °F 21.2 °F 60% 30.22 in 10.0 mi NNW 8.1 mph - N/A   Clear
2:13 PM 33.8 °F 27.7 °F 21.2 °F 60% 30.21 in 10.0 mi NW 6.9 mph - N/A   Clear
2:34 PM 33.8 °F 27.7 °F 21.2 °F 60% 30.20 in 10.0 mi NNW 6.9 mph - N/A   Clear
2:54 PM 33.8 °F 28.6 °F 21.2 °F 60% 30.20 in 10.0 mi NNW 5.8 mph - N/A   Clear
3:13 PM 33.8 °F 27.0 °F 21.2 °F 60% 30.20 in 10.0 mi NNW 8.1 mph - N/A   Clear
3:34 PM 33.8 °F 29.6 °F 21.2 °F 60% 30.20 in 10.0 mi NNW 4.6 mph - N/A   Clear
3:54 PM 33.8 °F 29.6 °F 21.2 °F 60% 30.20 in 10.0 mi NNW 4.6 mph - N/A   Clear
4:13 PM 32.0 °F 27.5 °F 21.2 °F 64% 30.20 in 10.0 mi NNW 4.6 mph - N/A   Clear
4:34 PM 30.2 °F 26.7 °F 21.2 °F 69% 30.19 in 10.0 mi North 3.5 mph - N/A   Clear
4:54 PM 30.2 °F - 21.2 °F 69% 30.20 in 10.0 mi Calm Calm - N/A   Clear
5:13 PM 30.2 °F - 21.2 °F 69% 30.19 in 10.0 mi Calm Calm - N/A   Clear
5:34 PM 30.2 °F - 21.2 °F 69% 30.20 in 10.0 mi Calm Calm - N/A   Clear
5:54 PM 26.6 °F - 19.4 °F 74% 30.21 in 10.0 mi Calm Calm - N/A   Clear
6:13 PM 26.6 °F - 21.2 °F 80% 30.21 in 10.0 mi Calm Calm - N/A   Clear
6:34 PM 26.6 °F - 21.2 °F 80% 30.20 in 10.0 mi Calm Calm - N/A   Clear
6:54 PM 26.6 °F - 21.2 °F 80% 30.19 in 10.0 mi Calm Calm - N/A   Clear
7:13 PM 23.0 °F 17.0 °F 19.4 °F 86% 30.18 in 10.0 mi South 4.6 mph - N/A   Clear
7:34 PM 21.2 °F 13.6 °F 17.6 °F 86% 30.17 in 10.0 mi South 5.8 mph - N/A   Clear
7:54 PM 21.2 °F 11.7 °F 17.6 °F 86% 30.17 in 10.0 mi SSE 8.1 mph - N/A   Clear
8:13 PM 21.2 °F 14.9 °F 17.6 °F 86% 30.17 in 10.0 mi South 4.6 mph - N/A   Clear
8:34 PM 19.4 °F 10.4 °F 17.6 °F 93% 30.16 in 10.0 mi South 6.9 mph - N/A   Clear
8:54 PM 19.4 °F 8.6 °F 17.6 °F 93% 30.15 in 10.0 mi South 9.2 mph - N/A   Clear
9:13 PM 19.4 °F 9.5 °F 17.6 °F 93% 30.15 in 10.0 mi South 8.1 mph - N/A   Clear
9:34 PM 21.2 °F 10.9 °F 19.4 °F 93% 30.13 in 10.0 mi SSE 9.2 mph - N/A   Clear
9:54 PM 19.4 °F 11.5 °F 17.6 °F 93% 30.13 in 10.0 mi South 5.8 mph - N/A   Clear
10:13 PM 19.4 °F 12.8 °F 19.4 °F 100% 30.13 in 10.0 mi South 4.6 mph - N/A   Clear
10:34 PM 17.6 °F 7.3 °F 17.6 °F 100% 30.12 in 10.0 mi SSE 8.1 mph - N/A   Clear
10:54 PM 19.4 °F 9.5 °F 17.6 °F 93% 30.11 in 10.0 mi SSE 8.1 mph - N/A   Clear
11:13 PM 19.4 °F 11.5 °F 17.6 °F 93% 30.10 in 10.0 mi SSE 5.8 mph - N/A   Clear
11:34 PM 17.6 °F 8.2 °F 17.6 °F 100% 30.10 in 10.0 mi SSE 6.9 mph - N/A   Clear
11:54 PM 17.6 °F 7.3 °F 17.6 °F 100% 30.10 in 10.0 mi SSE 8.1 mph - N/A   Clear